Time;durP1;ratioP1;P1;durP2;ratioP2;P2;SDS_P1;SDS_P2;PMS_P1;PMS_P2;Temp;Humidity;BMP_temperature;BMP_pressure;BME280_temperature;BME280_humidity;BME280_pressure;Samples;Min_cycle;Max_cycle;Signal;HPM_P1;HPM_P2
2023/03/19 00:02:13;;;;;;;22.95;17.33;;;10.70;99.90;;;;;;5114299;27;20043;-80
2023/03/19 00:04:39;;;;;;;23.05;15.75;;;10.70;99.90;;;;;;5117894;27;20047;-80
2023/03/19 00:07:05;;;;;;;20.77;15.07;;;10.70;99.90;;;;;;5113865;27;20306;-80
2023/03/19 00:09:31;;;;;;;23.55;17.80;;;10.70;99.90;;;;;;5093855;27;20052;-80
2023/03/19 00:11:56;;;;;;;23.52;17.30;;;10.70;99.90;;;;;;5128786;27;20200;-80
2023/03/19 00:14:22;;;;;;;21.05;16.05;;;10.70;99.90;;;;;;5098076;27;20031;-80
2023/03/19 00:16:48;;;;;;;24.08;17.02;;;10.60;99.90;;;;;;5133089;27;20039;-79
2023/03/19 00:19:14;;;;;;;23.75;17.42;;;10.60;99.90;;;;;;5118472;27;20043;-80
2023/03/19 00:21:40;;;;;;;23.08;16.75;;;10.60;99.90;;;;;;5115962;27;20082;-81
2023/03/19 00:24:07;;;;;;;23.10;16.17;;;10.60;99.90;;;;;;5094220;27;20043;-80
2023/03/19 00:26:34;;;;;;;25.05;15.82;;;10.60;99.90;;;;;;5109232;27;20047;-80
2023/03/19 00:29:00;;;;;;;25.55;17.73;;;10.60;99.90;;;;;;5105580;27;20054;-80
2023/03/19 00:31:27;;;;;;;22.13;16.77;;;10.70;99.90;;;;;;5110481;27;20046;-80
2023/03/19 00:33:56;;;;;;;22.25;16.25;;;10.70;99.90;;;;;;5106490;27;20407;-80
2023/03/19 00:36:22;;;;;;;24.92;17.20;;;10.90;99.90;;;;;;5122087;27;20055;-80
2023/03/19 00:38:48;;;;;;;22.80;15.85;;;10.60;99.90;;;;;;5119967;27;20241;-80
2023/03/19 00:41:16;;;;;;;21.98;16.50;;;10.60;99.90;;;;;;5135918;27;20114;-80
2023/03/19 00:43:43;;;;;;;22.83;16.50;;;10.60;99.90;;;;;;5084271;27;20043;-80
2023/03/19 00:46:08;;;;;;;22.88;16.13;;;10.60;99.90;;;;;;5088799;27;20066;-80
2023/03/19 00:48:34;;;;;;;21.65;15.95;;;10.60;99.90;;;;;;5109198;27;20043;-80
2023/03/19 00:51:08;;;;;;;24.50;17.00;;;10.60;99.90;;;;;;5105639;27;20050;-80
2023/03/19 00:53:42;;;;;;;21.77;15.85;;;10.60;99.90;;;;;;5084663;27;20531;-80
2023/03/19 00:56:09;;;;;;;21.27;14.52;;;10.60;99.90;;;;;;5098049;27;20046;-80
2023/03/19 00:58:37;;;;;;;22.42;14.93;;;10.60;99.90;;;;;;5103805;27;20039;-79
2023/03/19 01:01:04;;;;;;;22.13;14.45;;;10.60;99.90;;;;;;5102485;27;20040;-79
2023/03/19 01:03:30;;;;;;;20.02;13.60;;;10.60;99.90;;;;;;5106414;27;20043;-80
2023/03/19 01:05:57;;;;;;;21.88;13.38;;;10.60;99.90;;;;;;5105534;27;20447;-80
2023/03/19 01:08:22;;;;;;;21.20;14.00;;;10.60;99.90;;;;;;5101456;27;20130;-79
2023/03/19 01:10:48;;;;;;;18.30;12.52;;;10.60;99.90;;;;;;5085681;27;20145;-80
2023/03/19 01:13:14;;;;;;;17.45;12.05;;;10.60;99.90;;;;;;5124048;27;20043;-79
2023/03/19 01:15:42;;;;;;;19.70;12.27;;;10.60;99.90;;;;;;5124418;27;20090;-79
2023/03/19 01:18:09;;;;;;;20.63;12.32;;;10.60;99.90;;;;;;5085879;27;20154;-79
2023/03/19 01:20:37;;;;;;;16.88;12.15;;;10.60;99.90;;;;;;5104813;27;20038;-80
2023/03/19 01:23:03;;;;;;;15.15;11.18;;;10.60;99.90;;;;;;5088994;27;20053;-79
2023/03/19 01:25:29;;;;;;;17.98;11.93;;;10.80;99.90;;;;;;5105321;27;20238;-80
2023/03/19 01:27:55;;;;;;;19.58;12.45;;;10.60;99.90;;;;;;5085078;27;20047;-80
2023/03/19 01:30:21;;;;;;;20.70;13.57;;;10.70;99.90;;;;;;5101466;27;21578;-80
2023/03/19 01:32:50;;;;;;;19.25;13.05;;;10.70;99.90;;;;;;5106771;27;20050;-81
2023/03/19 01:35:19;;;;;;;17.98;12.38;;;10.60;99.90;;;;;;5102710;27;20116;-80
2023/03/19 01:37:45;;;;;;;19.67;13.32;;;10.70;99.90;;;;;;5085543;27;20283;-80
2023/03/19 01:40:13;;;;;;;18.65;13.35;;;10.80;99.90;;;;;;5104478;27;20058;-80
2023/03/19 01:43:12;;;;;;;15.57;11.93;;;10.70;99.90;;;;;;5122083;27;20526;-80
2023/03/19 01:45:41;;;;;;;15.60;11.25;;;10.60;99.90;;;;;;5113379;27;20092;-81
2023/03/19 01:48:35;;;;;;;15.68;10.10;;;10.90;99.90;;;;;;5105390;27;20039;-80
2023/03/19 01:51:00;;;;;;;14.48;9.23;;;10.60;99.90;;;;;;5115339;27;20410;-80
2023/03/19 01:53:32;;;;;;;15.25;9.32;;;10.70;99.90;;;;;;5094243;27;20133;-80
2023/03/19 01:56:35;;;;;;;14.07;9.57;;;10.60;99.90;;;;;;5106540;27;20632;-80
2023/03/19 01:59:14;;;;;;;13.80;10.25;;;10.60;99.90;;;;;;5074904;27;20388;-80
2023/03/19 02:01:56;;;;;;;17.10;10.60;;;10.60;99.90;;;;;;5102805;27;20058;-80
2023/03/19 02:04:24;;;;;;;16.02;9.90;;;10.60;99.90;;;;;;5090779;27;20532;-80
2023/03/19 02:06:50;;;;;;;13.65;10.45;;;10.60;99.90;;;;;;5109284;27;20074;-80
2023/03/19 02:09:18;;;;;;;17.73;10.57;;;10.90;99.90;;;;;;5135326;27;20047;-80
2023/03/19 02:11:45;;;;;;;14.80;9.60;;;10.60;99.90;;;;;;5107515;27;20039;-80
2023/03/19 02:14:12;;;;;;;16.33;10.27;;;10.60;99.90;;;;;;5095270;27;20047;-80
2023/03/19 02:16:38;;;;;;;14.70;9.88;;;10.60;99.90;;;;;;5091752;27;21205;-80
2023/03/19 02:19:08;;;;;;;15.23;10.52;;;10.60;99.90;;;;;;5089746;27;20403;-80
2023/03/19 02:21:34;;;;;;;14.63;9.53;;;10.60;99.90;;;;;;5107250;27;20042;-80
2023/03/19 02:24:10;;;;;;;15.10;9.23;;;10.60;99.90;;;;;;5094511;27;20381;-80
2023/03/19 02:26:36;;;;;;;14.32;8.98;;;10.70;99.90;;;;;;5107458;27;20039;-80
2023/03/19 02:29:03;;;;;;;13.25;9.35;;;10.80;99.90;;;;;;5124881;27;20039;-80
2023/03/19 02:31:29;;;;;;;14.57;9.80;;;10.60;99.90;;;;;;5091809;27;20104;-80
2023/03/19 02:34:19;;;;;;;14.60;9.43;;;10.90;99.90;;;;;;5101853;27;20184;-80
2023/03/19 02:36:59;;;;;;;15.48;9.68;;;10.60;99.90;;;;;;5093782;27;20054;-80
2023/03/19 02:39:42;;;;;;;12.10;8.65;;;10.60;99.90;;;;;;5111872;27;20028;-80
2023/03/19 02:42:10;;;;;;;13.35;9.57;;;10.60;99.90;;;;;;5091748;27;20043;-80
2023/03/19 02:44:36;;;;;;;13.40;9.23;;;10.60;99.90;;;;;;5108829;27;20038;-80
2023/03/19 02:47:03;;;;;;;17.60;11.43;;;10.60;99.90;;;;;;5108621;27;20530;-79
2023/03/19 02:49:29;;;;;;;15.88;10.57;;;10.70;99.90;;;;;;5114708;27;20568;-80
2023/03/19 02:51:55;;;;;;;14.43;10.00;;;10.70;99.90;;;;;;5113715;27;20043;-80
2023/03/19 02:54:21;;;;;;;15.73;9.70;;;10.50;99.90;;;;;;5114764;27;20034;-80
2023/03/19 02:56:48;;;;;;;18.45;10.68;;;10.60;99.90;;;;;;5093938;27;20462;-80
2023/03/19 02:59:14;;;;;;;16.52;9.43;;;10.60;99.90;;;;;;5145410;27;20038;-80
2023/03/19 03:01:39;;;;;;;16.42;9.95;;;10.60;99.90;;;;;;5094882;27;20077;-80
2023/03/19 03:04:05;;;;;;;15.10;9.82;;;10.50;99.90;;;;;;5111676;27;20655;-80
2023/03/19 03:06:31;;;;;;;13.60;10.18;;;10.50;99.90;;;;;;5111979;27;20570;-80
2023/03/19 03:08:57;;;;;;;16.63;10.65;;;10.50;99.90;;;;;;5115894;27;20042;-79
2023/03/19 03:11:23;;;;;;;17.40;10.05;;;10.40;99.90;;;;;;5106060;27;20091;-80
2023/03/19 03:13:48;;;;;;;14.15;9.20;;;10.40;99.90;;;;;;5126672;27;21240;-80
2023/03/19 03:16:14;;;;;;;14.52;9.45;;;10.60;99.90;;;;;;5088822;27;20035;-80
2023/03/19 03:18:41;;;;;;;14.32;9.00;;;10.40;99.90;;;;;;5121786;27;20046;-80
2023/03/19 03:21:07;;;;;;;15.27;8.00;;;10.40;99.90;;;;;;5101213;27;20300;-80
2023/03/19 03:23:32;;;;;;;12.73;7.82;;;10.40;99.90;;;;;;5128855;27;20096;-80
2023/03/19 03:25:58;;;;;;;14.77;8.48;;;10.40;99.90;;;;;;5103115;27;20068;-80
2023/03/19 03:28:24;;;;;;;11.32;6.93;;;10.40;99.90;;;;;;5103548;27;20466;-80
2023/03/19 03:30:49;;;;;;;10.60;6.80;;;10.40;99.90;;;;;;5087779;27;20095;-80
2023/03/19 03:33:16;;;;;;;14.82;7.05;;;10.30;99.90;;;;;;5119806;27;20032;-79
2023/03/19 03:35:42;;;;;;;13.82;6.88;;;10.40;99.90;;;;;;5093427;27;20054;-80
2023/03/19 03:38:08;;;;;;;10.93;6.57;;;10.40;99.90;;;;;;5074520;27;20132;-80
2023/03/19 03:40:35;;;;;;;13.63;6.30;;;10.40;99.90;;;;;;5107555;27;20043;-80
2023/03/19 03:43:01;;;;;;;12.10;5.82;;;10.40;99.90;;;;;;5090576;27;20546;-80
2023/03/19 03:45:27;;;;;;;10.18;6.15;;;10.60;99.90;;;;;;5114009;27;20415;-80
2023/03/19 03:47:52;;;;;;;10.93;6.35;;;10.40;99.90;;;;;;5095318;27;20044;-80
2023/03/19 03:50:18;;;;;;;11.18;6.05;;;10.40;99.90;;;;;;5111754;27;20035;-80
2023/03/19 03:52:44;;;;;;;10.30;5.88;;;10.40;99.90;;;;;;5111351;27;20483;-81
2023/03/19 03:55:10;;;;;;;11.48;5.93;;;10.40;99.90;;;;;;5115419;27;20039;-80
2023/03/19 03:57:36;;;;;;;9.32;6.00;;;10.40;99.90;;;;;;5093906;27;20082;-80
2023/03/19 04:00:03;;;;;;;8.40;5.50;;;10.50;99.90;;;;;;5112182;27;20532;-80
2023/03/19 04:02:29;;;;;;;8.50;5.85;;;10.40;99.90;;;;;;5080450;27;20508;-80
2023/03/19 04:04:55;;;;;;;8.88;5.50;;;10.40;99.90;;;;;;5101455;27;20110;-81
2023/03/19 04:07:21;;;;;;;9.70;5.70;;;10.40;99.90;;;;;;5090550;27;20050;-80
2023/03/19 04:09:49;;;;;;;8.80;5.43;;;10.40;99.90;;;;;;5100402;27;20043;-80
2023/03/19 04:12:16;;;;;;;8.93;5.68;;;10.40;99.90;;;;;;5107315;27;21634;-80
2023/03/19 04:14:41;;;;;;;9.57;5.05;;;10.40;99.90;;;;;;5104206;27;20150;-80
2023/03/19 04:17:07;;;;;;;12.90;5.63;;;10.40;99.90;;;;;;5099336;27;20057;-80
2023/03/19 04:19:33;;;;;;;9.30;5.53;;;10.40;99.90;;;;;;5122123;27;20127;-80
2023/03/19 04:21:59;;;;;;;10.60;5.82;;;10.40;99.90;;;;;;5085051;27;20043;-80
2023/03/19 04:24:25;;;;;;;10.57;6.20;;;10.40;99.90;;;;;;5120815;27;20043;-80
2023/03/19 04:26:52;;;;;;;9.80;5.90;;;10.40;99.90;;;;;;5118206;27;20031;-80
2023/03/19 04:29:17;;;;;;;8.80;5.75;;;10.40;99.90;;;;;;5103892;27;20107;-80
2023/03/19 04:31:48;;;;;;;9.40;5.57;;;10.40;99.90;;;;;;5105746;27;20056;-80
2023/03/19 04:34:14;;;;;;;9.65;5.35;;;10.30;99.90;;;;;;5119773;27;20138;-79
2023/03/19 04:36:40;;;;;;;12.18;5.95;;;10.40;99.90;;;;;;5121555;27;20147;-80
2023/03/19 04:39:06;;;;;;;10.52;5.10;;;10.40;99.90;;;;;;5084064;27;20367;-80
2023/03/19 04:41:32;;;;;;;7.75;5.28;;;10.40;99.90;;;;;;5107176;27;20510;-79
2023/03/19 04:43:57;;;;;;;8.18;4.95;;;10.30;99.90;;;;;;5112265;27;20139;-80
2023/03/19 04:46:23;;;;;;;9.00;5.25;;;10.50;99.90;;;;;;5117890;27;20542;-80
2023/03/19 04:48:49;;;;;;;11.00;5.43;;;10.40;99.90;;;;;;5105645;27;20123;-80
2023/03/19 04:51:20;;;;;;;8.82;5.15;;;10.40;99.90;;;;;;5086214;27;20132;-80
2023/03/19 04:53:47;;;;;;;7.72;4.85;;;10.40;99.90;;;;;;5087192;27;20496;-80
2023/03/19 04:56:15;;;;;;;7.70;5.03;;;10.30;99.90;;;;;;5124491;27;20032;-80
2023/03/19 04:58:42;;;;;;;11.55;5.80;;;10.40;99.90;;;;;;5105883;27;20039;-81
2023/03/19 05:01:08;;;;;;;10.55;5.88;;;10.40;99.90;;;;;;5123807;27;20046;-80
2023/03/19 05:03:33;;;;;;;8.82;5.78;;;10.30;99.90;;;;;;5110963;27;20567;-80
2023/03/19 05:05:59;;;;;;;10.25;5.50;;;10.40;99.90;;;;;;5125950;27;20130;-79
2023/03/19 05:08:25;;;;;;;8.98;5.63;;;10.60;99.90;;;;;;5102257;27;20031;-80
2023/03/19 05:10:52;;;;;;;14.07;6.45;;;10.30;99.90;;;;;;5134500;27;20051;-80
2023/03/19 05:13:18;;;;;;;12.05;6.53;;;10.30;99.90;;;;;;5107842;27;20399;-80
2023/03/19 05:15:44;;;;;;;11.55;7.55;;;10.30;99.90;;;;;;5101514;27;20039;-80
2023/03/19 05:18:14;;;;;;;12.75;7.68;;;10.30;99.90;;;;;;5086249;27;20051;-80
2023/03/19 05:20:41;;;;;;;11.98;7.60;;;10.20;99.90;;;;;;5128891;27;20101;-80
2023/03/19 05:23:07;;;;;;;13.02;8.07;;;10.30;99.90;;;;;;5110186;27;20470;-80
2023/03/19 05:25:34;;;;;;;11.68;8.20;;;10.20;99.90;;;;;;5091714;27;20122;-80
2023/03/19 05:28:00;;;;;;;11.60;7.93;;;10.20;99.90;;;;;;5089473;27;20036;-80
2023/03/19 05:30:26;;;;;;;13.52;8.98;;;10.10;99.90;;;;;;5099417;27;20046;-80
2023/03/19 05:32:52;;;;;;;14.85;7.88;;;10.30;99.90;;;;;;5091323;27;20043;-80
2023/03/19 05:35:18;;;;;;;13.20;9.00;;;10.40;99.90;;;;;;5089736;27;20047;-80
2023/03/19 05:37:44;;;;;;;15.95;9.02;;;10.10;99.90;;;;;;5100869;27;20066;-80
2023/03/19 05:40:11;;;;;;;13.40;8.30;;;10.10;99.90;;;;;;5135626;27;20055;-80
2023/03/19 05:42:37;;;;;;;13.25;8.82;;;10.00;99.90;;;;;;5127328;27;20101;-80
2023/03/19 05:45:04;;;;;;;13.10;8.77;;;10.00;99.90;;;;;;5125895;27;20046;-80
2023/03/19 05:47:30;;;;;;;14.50;8.68;;;10.00;99.90;;;;;;5128522;27;20043;-80
2023/03/19 05:49:56;;;;;;;11.07;7.38;;;10.30;99.90;;;;;;5090206;27;20515;-80
2023/03/19 05:52:22;;;;;;;12.38;8.20;;;10.00;99.90;;;;;;5107804;27;20495;-80
2023/03/19 05:54:49;;;;;;;12.70;8.30;;;9.90;99.90;;;;;;5115060;27;20049;-78
2023/03/19 05:57:15;;;;;;;14.80;8.38;;;9.90;99.90;;;;;;5157675;27;20043;-80
2023/03/19 05:59:41;;;;;;;12.38;7.72;;;9.80;99.90;;;;;;5106784;27;20054;-79
2023/03/19 06:02:07;;;;;;;11.38;7.78;;;9.90;99.90;;;;;;5092445;27;20864;-80
2023/03/19 06:04:33;;;;;;;13.98;7.35;;;9.80;99.90;;;;;;5110677;27;20074;-80
2023/03/19 06:06:58;;;;;;;16.35;8.93;;;10.10;99.90;;;;;;5109829;27;20687;-80
2023/03/19 06:09:24;;;;;;;12.40;7.78;;;9.70;99.90;;;;;;5120638;27;20270;-79
2023/03/19 06:11:50;;;;;;;12.75;8.52;;;9.80;99.90;;;;;;5111218;27;20035;-79
2023/03/19 06:14:16;;;;;;;13.48;9.07;;;9.70;99.90;;;;;;5109279;27;20075;-80
2023/03/19 06:16:42;;;;;;;14.70;8.82;;;9.60;99.90;;;;;;5103724;27;20048;-80
2023/03/19 06:19:08;;;;;;;15.85;9.50;;;9.60;99.90;;;;;;5132457;27;20130;-80
2023/03/19 06:21:34;;;;;;;15.07;9.07;;;9.60;99.90;;;;;;5103381;27;20036;-80
2023/03/19 06:24:00;;;;;;;15.25;9.15;;;9.60;99.90;;;;;;5105081;27;20491;-80
2023/03/19 06:26:26;;;;;;;14.65;10.25;;;9.60;99.90;;;;;;5113650;27;20039;-80
2023/03/19 06:28:53;;;;;;;17.02;10.35;;;9.60;99.90;;;;;;5130564;27;20481;-80
2023/03/19 06:31:18;;;;;;;15.45;9.50;;;9.60;99.90;;;;;;5105722;27;20043;-80
2023/03/19 06:33:44;;;;;;;14.68;9.25;;;9.60;99.90;;;;;;5119420;27;20094;-80
2023/03/19 06:36:10;;;;;;;15.02;9.70;;;9.70;99.90;;;;;;5101650;27;20054;-80
2023/03/19 06:38:36;;;;;;;14.95;9.93;;;9.70;99.90;;;;;;5086464;27;20070;-80
2023/03/19 06:41:02;;;;;;;15.63;9.85;;;9.80;99.90;;;;;;5119980;27;20047;-80
2023/03/19 06:43:30;;;;;;;11.93;8.68;;;9.80;99.90;;;;;;5119912;27;20075;-79
2023/03/19 06:45:56;;;;;;;12.85;7.88;;;9.90;99.90;;;;;;5121923;27;20092;-80
2023/03/19 06:48:21;;;;;;;11.88;7.88;;;10.00;99.90;;;;;;5133386;27;20046;-79
2023/03/19 06:50:50;;;;;;;11.52;7.35;;;10.10;99.90;;;;;;5118521;27;20475;-80
2023/03/19 06:53:16;;;;;;;12.25;7.53;;;10.30;99.90;;;;;;5104119;27;20051;-80
2023/03/19 06:55:44;;;;;;;13.35;7.05;;;10.20;99.90;;;;;;5114426;27;20066;-80
2023/03/19 06:58:10;;;;;;;12.15;7.40;;;10.20;99.90;;;;;;5081800;27;20046;-80
2023/03/19 07:00:35;;;;;;;12.02;7.32;;;10.20;99.90;;;;;;5105617;27;20054;-80
2023/03/19 07:03:01;;;;;;;12.35;7.78;;;10.20;99.90;;;;;;5087770;27;20788;-80
2023/03/19 07:05:27;;;;;;;11.65;7.03;;;10.20;99.90;;;;;;5090282;27;20128;-80
2023/03/19 07:07:52;;;;;;;11.55;6.95;;;10.30;99.90;;;;;;5104287;27;20050;-80
2023/03/19 07:10:19;;;;;;;12.32;7.50;;;10.30;99.90;;;;;;5099997;27;20043;-80
2023/03/19 07:12:45;;;;;;;11.77;7.43;;;10.40;99.90;;;;;;5098327;27;20039;-80
2023/03/19 07:15:11;;;;;;;10.30;7.22;;;10.40;99.90;;;;;;5100069;27;20051;-80
2023/03/19 07:17:36;;;;;;;10.95;7.07;;;10.50;99.90;;;;;;5130145;27;20594;-80
2023/03/19 07:20:03;;;;;;;10.30;6.95;;;10.60;99.90;;;;;;5079781;27;20047;-80
2023/03/19 07:22:29;;;;;;;10.27;6.22;;;10.70;99.90;;;;;;5117546;27;20039;-81
2023/03/19 07:24:54;;;;;;;11.13;6.75;;;10.80;99.90;;;;;;5129960;27;20660;-81
2023/03/19 07:27:20;;;;;;;8.80;6.03;;;11.00;99.90;;;;;;5082023;27;20052;-80
2023/03/19 07:29:47;;;;;;;8.27;6.28;;;11.10;99.90;;;;;;5081395;27;20039;-80
2023/03/19 07:32:13;;;;;;;9.45;6.82;;;11.10;99.90;;;;;;5119503;27;20035;-80
2023/03/19 07:34:39;;;;;;;10.32;6.88;;;11.20;99.90;;;;;;5075176;28;20139;-80
2023/03/19 07:37:06;;;;;;;10.57;7.07;;;11.40;99.90;;;;;;5052825;28;20055;-80
2023/03/19 07:39:32;;;;;;;10.68;7.22;;;11.40;99.90;;;;;;5072232;28;20097;-80
2023/03/19 07:41:58;;;;;;;12.23;7.47;;;11.40;99.90;;;;;;5070456;28;20039;-80
2023/03/19 07:44:24;;;;;;;10.73;6.95;;;11.50;99.90;;;;;;5069778;28;20105;-80
2023/03/19 07:46:50;;;;;;;9.25;6.60;;;11.50;99.90;;;;;;5074732;28;20044;-80
2023/03/19 07:49:16;;;;;;;9.27;6.70;;;11.60;99.90;;;;;;5072057;28;20487;-80
2023/03/19 07:51:42;;;;;;;12.65;8.13;;;11.70;99.90;;;;;;5069303;28;20464;-80
2023/03/19 07:54:08;;;;;;;11.82;8.88;;;11.80;99.90;;;;;;5068061;28;20052;-80
2023/03/19 07:56:35;;;;;;;13.27;8.13;;;11.80;99.90;;;;;;5066454;28;20089;-81
2023/03/19 07:59:00;;;;;;;14.60;10.25;;;12.00;99.90;;;;;;5066576;28;20223;-80
2023/03/19 08:01:26;;;;;;;13.45;9.50;;;11.90;99.90;;;;;;5070931;28;20058;-81
2023/03/19 08:03:52;;;;;;;15.07;10.45;;;12.00;99.90;;;;;;5071489;28;20040;-81
2023/03/19 08:06:19;;;;;;;14.25;10.52;;;12.10;99.90;;;;;;5054192;28;20036;-80
2023/03/19 08:08:50;;;;;;;14.85;10.80;;;12.10;99.90;;;;;;5049948;28;20454;-79
2023/03/19 08:11:17;;;;;;;16.52;12.63;;;12.10;99.90;;;;;;5053071;28;20577;-80
2023/03/19 08:13:43;;;;;;;17.48;12.98;;;12.00;99.90;;;;;;5050861;28;20171;-80
2023/03/19 08:16:09;;;;;;;20.75;13.18;;;12.00;99.90;;;;;;5066874;28;20059;-79
2023/03/19 08:18:35;;;;;;;20.63;15.75;;;12.00;99.90;;;;;;5084461;28;20074;-78
2023/03/19 08:21:01;;;;;;;21.23;15.80;;;12.00;99.90;;;;;;5092161;28;20066;-80
2023/03/19 08:23:27;;;;;;;19.85;15.48;;;12.00;99.90;;;;;;5095664;28;20097;-80
2023/03/19 08:25:54;;;;;;;21.70;16.25;;;12.20;99.90;;;;;;5096655;28;20052;-79
2023/03/19 08:28:20;;;;;;;20.70;14.98;;;12.00;99.90;;;;;;5078160;28;20052;-79
2023/03/19 08:30:46;;;;;;;22.27;15.52;;;12.00;99.90;;;;;;5090004;28;20104;-79
2023/03/19 08:33:15;;;;;;;22.25;16.67;;;12.00;99.90;;;;;;5089632;28;20085;-78
2023/03/19 08:35:40;;;;;;;20.02;15.80;;;11.90;99.90;;;;;;5085896;28;20070;-79
2023/03/19 08:38:06;;;;;;;19.27;14.63;;;11.90;99.90;;;;;;5092752;28;20125;-79
2023/03/19 08:40:32;;;;;;;17.75;13.90;;;12.10;99.90;;;;;;5068368;28;20054;-79
2023/03/19 08:42:58;;;;;;;19.00;14.52;;;11.90;99.90;;;;;;5081721;28;20040;-79
2023/03/19 08:45:24;;;;;;;20.90;14.75;;;11.80;99.90;;;;;;5067257;28;20040;-80
2023/03/19 08:47:51;;;;;;;21.17;15.13;;;11.80;99.90;;;;;;5074056;28;20055;-80
2023/03/19 08:50:18;;;;;;;22.33;14.57;;;11.80;99.90;;;;;;5095677;28;20076;-81
2023/03/19 08:52:44;;;;;;;20.63;16.42;;;11.90;99.90;;;;;;5082920;28;20043;-80
2023/03/19 08:55:10;;;;;;;18.75;14.18;;;11.90;99.90;;;;;;5096558;27;20582;-81
2023/03/19 08:57:36;;;;;;;22.73;14.73;;;11.90;99.90;;;;;;5064434;28;20093;-80
2023/03/19 09:00:04;;;;;;;20.90;14.18;;;11.80;99.90;;;;;;5085917;28;20086;-81
2023/03/19 09:02:30;;;;;;;19.50;14.45;;;11.80;99.90;;;;;;5082078;28;20066;-78
2023/03/19 09:04:56;;;;;;;20.52;14.98;;;11.80;99.90;;;;;;5084571;28;20404;-80
2023/03/19 09:07:22;;;;;;;18.95;14.75;;;11.90;99.90;;;;;;5087391;28;20109;-80
2023/03/19 09:09:48;;;;;;;18.48;14.60;;;11.80;99.90;;;;;;5083164;28;20314;-80
2023/03/19 09:12:15;;;;;;;21.05;15.30;;;11.90;99.90;;;;;;5088637;28;20063;-81
2023/03/19 09:14:42;;;;;;;21.55;14.63;;;11.80;99.90;;;;;;5087351;28;20551;-80
2023/03/19 09:17:09;;;;;;;22.10;15.45;;;11.80;99.90;;;;;;5070915;28;20054;-79
2023/03/19 09:19:35;;;;;;;19.58;14.25;;;11.70;99.90;;;;;;5083439;28;20086;-80
2023/03/19 09:22:02;;;;;;;20.25;13.93;;;11.70;99.90;;;;;;5068223;28;20048;-79
2023/03/19 09:24:28;;;;;;;18.85;13.98;;;11.70;99.90;;;;;;5083206;28;20439;-80
2023/03/19 09:26:54;;;;;;;19.55;13.90;;;12.00;99.90;;;;;;5087856;28;20036;-79
2023/03/19 09:29:20;;;;;;;18.60;13.68;;;11.70;99.90;;;;;;5068324;28;20650;-80
2023/03/19 09:31:50;;;;;;;17.98;12.98;;;11.70;99.90;;;;;;5083873;28;20076;-80
2023/03/19 09:34:15;;;;;;;19.92;13.25;;;11.70;99.90;;;;;;5082348;28;20043;-78
2023/03/19 09:36:41;;;;;;;18.33;12.15;;;11.70;99.90;;;;;;5086155;28;20496;-79
2023/03/19 09:39:07;;;;;;;16.63;12.10;;;11.60;99.90;;;;;;5064226;28;20052;-79
2023/03/19 09:42:15;;;;;;;16.27;12.05;;;11.60;99.90;;;;;;5083846;28;20044;-79
2023/03/19 09:44:44;;;;;;;16.13;11.85;;;11.60;99.90;;;;;;5053338;28;20094;-79
2023/03/19 09:47:22;;;;;;;19.92;12.60;;;11.60;99.90;;;;;;5082684;28;20036;-79
2023/03/19 09:49:50;;;;;;;17.77;11.80;;;11.60;99.90;;;;;;5066618;28;20509;-80
2023/03/19 09:52:27;;;;;;;17.77;12.80;;;11.60;99.90;;;;;;5082815;28;20044;-80
2023/03/19 09:54:57;;;;;;;18.15;13.07;;;11.50;99.90;;;;;;5066677;28;20040;-80
2023/03/19 09:57:23;;;;;;;18.73;13.30;;;11.50;99.90;;;;;;5081933;28;20243;-80
2023/03/19 09:59:51;;;;;;;17.73;12.18;;;11.50;99.90;;;;;;5084178;28;20163;-81
2023/03/19 10:02:31;;;;;;;18.77;13.38;;;11.60;99.90;;;;;;5079869;28;20353;-80
2023/03/19 10:04:57;;;;;;;19.30;13.88;;;11.60;99.90;;;;;;5067154;28;20036;-79
2023/03/19 10:07:29;;;;;;;21.13;14.90;;;11.50;99.90;;;;;;5084182;28;20043;-79
2023/03/19 10:10:21;;;;;;;22.50;16.15;;;11.50;99.90;;;;;;5064703;28;20483;-79
2023/03/19 10:13:25;;;;;;;24.02;17.08;;;11.50;99.90;;;;;;5064682;28;20047;-79
2023/03/19 10:15:52;;;;;;;25.08;17.75;;;11.50;99.90;;;;;;5060303;28;20081;-78
2023/03/19 10:18:31;;;;;;;27.55;18.17;;;11.50;99.90;;;;;;5077023;28;20052;-79
2023/03/19 10:21:07;;;;;;;25.23;17.27;;;11.40;99.90;;;;;;5086182;28;20039;-80
2023/03/19 10:23:54;;;;;;;24.17;17.73;;;11.30;99.90;;;;;;5060782;28;20077;-80
2023/03/19 10:26:28;;;;;;;24.73;17.08;;;11.30;99.90;;;;;;5077776;28;20461;-80
2023/03/19 10:29:22;;;;;;;22.65;16.67;;;11.30;99.90;;;;;;5081426;28;20028;-80
2023/03/19 10:32:03;;;;;;;27.95;18.50;;;11.20;99.90;;;;;;5091040;28;20044;-81
2023/03/19 10:34:38;;;;;;;25.42;17.25;;;11.20;99.90;;;;;;5099448;28;20056;-81
2023/03/19 10:37:16;;;;;;;28.40;17.58;;;11.20;99.90;;;;;;5102964;28;20054;-81
2023/03/19 10:39:50;;;;;;;25.08;16.88;;;11.20;99.90;;;;;;5100156;28;20350;-81
2023/03/19 10:42:25;;;;;;;24.85;16.85;;;11.20;99.90;;;;;;5106172;28;20106;-80
2023/03/19 10:44:57;;;;;;;23.58;17.40;;;11.20;99.90;;;;;;5087653;28;20372;-81
2023/03/19 10:47:25;;;;;;;25.67;18.20;;;11.30;99.90;;;;;;5101449;28;20489;-80
2023/03/19 10:49:51;;;;;;;29.13;19.35;;;11.30;99.90;;;;;;5077581;28;20365;-80
2023/03/19 10:52:27;;;;;;;28.15;19.92;;;11.30;99.90;;;;;;5074263;28;20197;-80
2023/03/19 10:55:04;;;;;;;31.75;21.10;;;11.20;99.90;;;;;;5068131;28;20105;-80
2023/03/19 10:57:33;;;;;;;33.58;21.17;;;11.20;99.90;;;;;;5064430;28;20048;-80
2023/03/19 11:00:05;;;;;;;31.70;22.05;;;11.10;99.90;;;;;;5068387;28;20040;-80
2023/03/19 11:02:32;;;;;;;33.15;22.08;;;11.10;99.90;;;;;;5090526;28;20082;-80
2023/03/19 11:05:13;;;;;;;34.70;21.13;;;11.00;99.90;;;;;;5083147;28;20051;-80
2023/03/19 11:07:39;;;;;;;33.55;22.58;;;11.00;99.90;;;;;;5085971;28;20097;-80
2023/03/19 11:10:14;;;;;;;36.92;24.65;;;11.20;99.90;;;;;;5070698;28;20048;-80
2023/03/19 11:12:40;;;;;;;33.90;21.73;;;11.00;99.90;;;;;;5068481;28;20075;-80
2023/03/19 11:15:19;;;;;;;35.15;23.45;;;11.00;99.90;;;;;;5080216;28;20679;-80
2023/03/19 11:17:46;;;;;;;36.85;23.85;;;11.00;99.90;;;;;;5082799;28;20413;-80
2023/03/19 11:20:32;;;;;;;36.88;23.67;;;11.00;99.90;;;;;;5065783;28;20405;-79
2023/03/19 11:23:01;;;;;;;38.78;23.98;;;11.00;99.90;;;;;;5061529;28;20035;-81
2023/03/19 11:25:28;;;;;;;33.72;22.73;;;11.10;99.90;;;;;;5079182;28;20040;-81
2023/03/19 11:28:07;;;;;;;34.05;21.90;;;11.10;99.90;;;;;;5076819;28;20051;-81
2023/03/19 11:30:45;;;;;;;29.88;20.27;;;11.10;99.90;;;;;;5056428;28;20203;-80
2023/03/19 11:33:37;;;;;;;33.70;20.70;;;11.00;99.90;;;;;;5077088;28;20058;-81
2023/03/19 11:36:36;;;;;;;32.35;20.25;;;11.00;99.90;;;;;;5030365;28;20122;-80
2023/03/19 11:39:11;;;;;;;31.02;20.00;;;11.00;99.90;;;;;;5079802;28;20044;-78
2023/03/19 11:41:45;;;;;;;31.38;19.30;;;11.00;99.90;;;;;;5063705;28;20051;-81
2023/03/19 11:44:21;;;;;;;31.25;19.40;;;11.00;99.90;;;;;;5077512;28;20529;-81
2023/03/19 11:46:54;;;;;;;29.15;19.40;;;11.00;99.90;;;;;;5082396;28;20516;-81
2023/03/19 11:49:26;;;;;;;33.80;20.85;;;11.00;99.90;;;;;;5081099;28;20044;-81
2023/03/19 11:52:34;;;;;;;34.47;21.27;;;10.90;99.90;;;;;;5073337;28;20698;-80
2023/03/19 11:55:42;;;;;;;35.53;20.63;;;10.90;99.90;;;;;;5073068;28;20044;-80
2023/03/19 11:58:32;;;;;;;34.90;22.10;;;10.90;99.90;;;;;;5051991;28;20048;-80
2023/03/19 12:01:24;;;;;;;34.20;20.90;;;10.90;99.90;;;;;;5013031;28;20080;-80
2023/03/19 12:04:08;;;;;;;34.35;22.20;;;10.90;99.90;;;;;;5083957;27;20064;-81
2023/03/19 12:06:52;;;;;;;35.63;21.25;;;10.90;99.90;;;;;;5060970;28;20496;-80
2023/03/19 12:09:53;;;;;;;34.53;20.80;;;10.90;99.90;;;;;;5077815;28;20663;-81
2023/03/19 12:12:25;;;;;;;35.95;21.23;;;10.80;99.90;;;;;;5064279;28;20039;-81
2023/03/19 12:15:29;;;;;;;35.58;21.25;;;10.80;99.90;;;;;;5077943;28;20444;-81
2023/03/19 12:18:06;;;;;;;39.70;23.52;;;10.70;99.90;;;;;;5080104;28;20075;-80
2023/03/19 12:20:42;;;;;;;40.22;23.45;;;10.70;99.90;;;;;;5080611;28;20113;-80
2023/03/19 12:23:26;;;;;;;35.60;22.75;;;10.70;99.90;;;;;;5077331;28;20445;-80
2023/03/19 12:26:08;;;;;;;39.38;22.38;;;10.70;99.90;;;;;;5059679;28;20504;-80
2023/03/19 12:28:45;;;;;;;34.00;20.65;;;10.70;99.90;;;;;;5056628;28;20067;-80
2023/03/19 12:31:41;;;;;;;38.63;21.88;;;10.70;99.90;;;;;;5072929;28;20277;-80
2023/03/19 12:34:48;;;;;;;41.58;22.58;;;10.70;99.90;;;;;;5096125;27;20076;-80
2023/03/19 12:37:28;;;;;;;38.78;22.60;;;10.70;99.90;;;;;;5084274;28;20508;-80
2023/03/19 12:40:23;;;;;;;37.33;21.30;;;10.70;99.90;;;;;;5124601;27;20397;-80
2023/03/19 12:42:50;;;;;;;36.60;20.13;;;10.70;99.90;;;;;;5079696;28;20139;-80
2023/03/19 12:45:25;;;;;;;36.45;21.05;;;10.70;99.90;;;;;;5127833;27;20392;-80
2023/03/19 12:47:57;;;;;;;37.85;21.15;;;10.70;99.90;;;;;;5113840;28;20071;-81